createdAt,value
2022-08-07T00:00:05.883Z,0
2022-08-07T00:04:57.843Z,0
2022-08-07T00:10:32.330Z,0
2022-08-07T00:14:57.177Z,0
2022-08-07T00:20:16.168Z,0
2022-08-07T00:24:55.949Z,0
2022-08-07T00:30:03.552Z,0
2022-08-07T00:34:54.606Z,0
2022-08-07T00:40:00.316Z,0
2022-08-07T00:44:54.658Z,0
2022-08-07T00:50:55.029Z,0
2022-08-07T00:54:56.485Z,0
2022-08-07T00:59:32.599Z,0
2022-08-07T01:04:36.405Z,0
2022-08-07T01:10:15.189Z,0
2022-08-07T01:14:30.750Z,0
2022-08-07T01:19:23.480Z,0
2022-08-07T01:24:25.151Z,0
2022-08-07T01:29:19.644Z,0
2022-08-07T01:34:19.611Z,0
2022-08-07T01:39:17.239Z,0
2022-08-07T01:44:23.903Z,0
2022-08-07T01:49:23.552Z,0
2022-08-07T01:54:40.542Z,0
2022-08-07T01:58:53.181Z,0
2022-08-07T02:03:56.012Z,0
2022-08-07T02:08:58.731Z,0
2022-08-07T02:14:05.217Z,0
2022-08-07T02:18:54.273Z,0
2022-08-07T02:23:52.683Z,0
2022-08-07T02:28:52.041Z,0
2022-08-07T02:34:19.449Z,0
2022-08-07T02:39:00.526Z,0
2022-08-07T02:43:54.249Z,0
2022-08-07T02:48:58.639Z,0
2022-08-07T02:53:48.723Z,0
2022-08-07T02:58:51.447Z,0
2022-08-07T03:00:19.374Z,0
2022-08-07T03:05:10.005Z,0
2022-08-07T03:10:47.461Z,0
2022-08-07T03:15:12.839Z,0
2022-08-07T03:20:03.564Z,0
2022-08-07T03:25:04.029Z,0
2022-08-07T03:30:05.136Z,0
2022-08-07T03:35:50.922Z,0
2022-08-07T03:40:22.780Z,0
2022-08-07T03:45:32.222Z,0
2022-08-07T03:49:56.914Z,0
2022-08-07T03:55:09.219Z,0
2022-08-07T03:59:19.318Z,0
2022-08-07T04:04:20.887Z,0
2022-08-07T04:09:44.979Z,0
2022-08-07T04:14:50.851Z,0
2022-08-07T04:19:50.873Z,0
2022-08-07T04:24:42.695Z,0
2022-08-07T04:29:18.904Z,0
2022-08-07T04:34:40.863Z,0.01
2022-08-07T04:39:36.337Z,0.01
2022-08-07T04:44:22.058Z,0.01
2022-08-07T04:49:29.841Z,0.01
2022-08-07T04:54:17.519Z,0.02
2022-08-07T05:00:32.487Z,0.02
2022-08-07T05:04:21.426Z,0.02
2022-08-07T05:09:09.238Z,0.03
2022-08-07T05:15:10.354Z,0.03
2022-08-07T05:18:56.313Z,0.04
2022-08-07T05:23:53.485Z,0.04
2022-08-07T05:28:56.193Z,0.05
2022-08-07T05:34:13.177Z,0.05
2022-08-07T05:40:22.170Z,0.05
2022-08-07T05:44:15.900Z,0.06
2022-08-07T05:49:15.189Z,0.06
2022-08-07T05:55:11.434Z,0.07
2022-08-07T05:58:55.236Z,0.07
2022-08-07T06:04:04.732Z,0.08
2022-08-07T06:08:56.897Z,0.08
2022-08-07T06:14:33.167Z,0.09
2022-08-07T06:18:59.165Z,0.1
2022-08-07T06:25:03.789Z,0.1
2022-08-07T06:28:53.388Z,0.11
2022-08-07T06:33:52.613Z,0.11
2022-08-07T06:40:24.881Z,0.12
2022-08-07T06:44:13.293Z,0.12
2022-08-07T06:48:49.152Z,0.13
2022-08-07T06:56:14.695Z,0.13
2022-08-07T07:00:21.964Z,0.14
2022-08-07T07:04:34.603Z,0.15
2022-08-07T07:08:49.386Z,0.15
2022-08-07T07:14:09.951Z,0.16
2022-08-07T07:18:51.383Z,0.16
2022-08-07T07:24:17.786Z,0.17
2022-08-07T07:30:38.788Z,0.22
2022-08-07T07:33:39.588Z,0.34
2022-08-07T07:38:48.028Z,0.35
2022-08-07T07:44:28.178Z,0.37
2022-08-07T07:48:39.940Z,0.38
2022-08-07T07:53:54.405Z,0.4
2022-08-07T07:58:45.954Z,0.41
2022-08-07T08:00:03.492Z,0.42
2022-08-07T08:05:02.251Z,0.43
2022-08-07T08:10:35.787Z,0.45
2022-08-07T08:14:57.939Z,0.47
2022-08-07T08:20:37.144Z,0.48
2022-08-07T08:25:50.495Z,0.5
2022-08-07T08:30:04.515Z,0.52
2022-08-07T08:34:53.278Z,0.54
2022-08-07T08:40:02.201Z,0.56
2022-08-07T08:44:49.607Z,0.58
2022-08-07T08:50:08.104Z,0.6
2022-08-07T08:54:49.492Z,0.62
2022-08-07T08:59:19.860Z,0.63
2022-08-07T09:04:16.214Z,0.65
2022-08-07T09:09:38.191Z,0.66
2022-08-07T09:14:14.734Z,0.68
2022-08-07T09:19:57.745Z,0.7
2022-08-07T09:25:18.728Z,0.71
2022-08-07T09:30:14.613Z,0.73
2022-08-07T09:34:27.266Z,0.75
2022-08-07T09:40:01.158Z,0.76
2022-08-07T09:48:06.284Z,0.77
2022-08-07T09:50:22.000Z,0.77
2022-08-07T09:54:28.276Z,0.79
2022-08-07T09:58:56.054Z,0.81
2022-08-07T10:04:33.718Z,0.81
2022-08-07T10:08:55.416Z,0.84
2022-08-07T10:14:07.115Z,0.84
2022-08-07T10:19:00.222Z,0.85
2022-08-07T10:24:22.229Z,0.86
2022-08-07T10:28:55.187Z,0.87
2022-08-07T10:34:33.145Z,0.87
2022-08-07T10:38:54.923Z,0.88
2022-08-07T10:43:49.823Z,0.89
2022-08-07T10:48:51.677Z,0.89
2022-08-07T10:53:48.599Z,0.9
2022-08-07T10:59:00.949Z,0.91
2022-08-07T11:04:39.892Z,0.91
2022-08-07T11:08:46.808Z,0.91
2022-08-07T11:15:03.329Z,0.92
2022-08-07T11:18:51.689Z,0.93
2022-08-07T11:23:49.914Z,0.93
2022-08-07T11:28:56.391Z,0.93
2022-08-07T11:34:05.146Z,0.94
2022-08-07T11:39:01.552Z,0.94
2022-08-07T11:44:20.717Z,0.94
2022-08-07T11:48:40.593Z,0.93
2022-08-07T11:54:10.941Z,0.93
2022-08-07T11:58:42.208Z,0.93
2022-08-07T12:03:49.289Z,0.93
2022-08-07T12:08:46.293Z,0.93
2022-08-07T12:13:50.791Z,0.92
2022-08-07T12:18:35.552Z,0.91
2022-08-07T12:24:41.644Z,0.91
2022-08-07T12:28:37.741Z,0.9
2022-08-07T12:34:14.330Z,0.89
2022-08-07T12:39:00.140Z,0.89
2022-08-07T12:44:17.978Z,0.87
2022-08-07T12:48:58.757Z,0.86
2022-08-07T12:54:42.125Z,0.85
2022-08-07T12:58:40.020Z,0.84
2022-08-07T12:59:58.254Z,0.84
2022-08-07T13:06:15.215Z,0.82
2022-08-07T13:10:56.409Z,0.57
2022-08-07T13:14:58.384Z,0.38
2022-08-07T13:19:55.025Z,0.74
2022-08-07T13:25:01.139Z,0.42
2022-08-07T13:29:52.403Z,0.56
2022-08-07T13:34:54.417Z,0.65
2022-08-07T13:40:45.420Z,0.42
2022-08-07T13:46:29.967Z,0.35
2022-08-07T13:52:04.613Z,0.4
2022-08-07T13:54:56.182Z,0.48
2022-08-07T13:59:16.560Z,0.28
2022-08-07T14:04:50.440Z,0.29
2022-08-07T14:10:31.581Z,0.28
2022-08-07T14:14:21.488Z,0.46
2022-08-07T14:20:56.165Z,0.37
2022-08-07T14:24:42.133Z,0.42
2022-08-07T14:30:33.402Z,0.41
2022-08-07T14:34:32.088Z,0.37
2022-08-07T14:40:36.572Z,0.23
2022-08-07T14:44:19.818Z,0.22
2022-08-07T15:52:02.240Z,0.23
2022-08-07T15:52:20.460Z,0.49
2022-08-07T15:53:09.111Z,0.38
2022-08-07T15:53:42.279Z,0.22
2022-08-07T15:58:42.109Z,0.14
2022-08-07T16:00:33.941Z,0.14
2022-08-07T16:05:03.881Z,0.14
2022-08-07T16:10:06.119Z,0.13
2022-08-07T16:15:03.065Z,0.12
2022-08-07T16:20:06.581Z,0.12
2022-08-07T16:25:01.116Z,0.11
2022-08-07T16:30:35.968Z,0.11
2022-08-07T16:34:59.081Z,0.1
2022-08-07T16:39:57.207Z,0.1
2022-08-07T16:47:51.070Z,0.1
2022-08-07T17:54:57.293Z,0.03
2022-08-07T17:59:01.432Z,0.02
2022-08-07T18:04:20.367Z,0.02
2022-08-07T18:09:17.318Z,0.02
2022-08-07T18:14:07.337Z,0.01
2022-08-07T18:22:17.178Z,0.01
2022-08-07T18:24:08.834Z,0.01
2022-08-07T18:29:02.539Z,0.01
2022-08-07T18:33:59.672Z,0
2022-08-07T18:41:03.897Z,0
2022-08-07T18:43:59.445Z,0
2022-08-07T18:50:48.631Z,0
2022-08-07T18:53:58.516Z,0
2022-08-07T19:03:56.284Z,0
2022-08-07T19:08:53.315Z,0
2022-08-07T19:13:52.453Z,0
2022-08-07T19:18:48.626Z,0
2022-08-07T19:24:03.150Z,0
2022-08-07T19:32:44.722Z,0
2022-08-07T19:34:01.550Z,0
2022-08-07T19:38:56.793Z,0
2022-08-07T19:44:01.873Z,0
2022-08-07T19:48:56.170Z,0
2022-08-07T19:55:00.448Z,0
2022-08-07T19:58:52.981Z,0
2022-08-07T20:03:43.486Z,0
2022-08-07T20:08:36.186Z,0
2022-08-07T20:13:36.206Z,0
2022-08-07T20:18:41.420Z,0
2022-08-07T20:24:01.260Z,0
2022-08-07T20:28:33.849Z,0
2022-08-07T20:33:43.195Z,0
2022-08-07T20:38:31.367Z,0
2022-08-07T20:43:31.603Z,0
2022-08-07T20:48:36.992Z,0
2022-08-07T20:54:32.881Z,0
2022-08-07T20:58:39.067Z,0
2022-08-07T21:00:17.692Z,0
2022-08-07T21:04:49.142Z,0
2022-08-07T21:10:05.769Z,0
2022-08-07T21:14:56.862Z,0
2022-08-07T21:20:26.960Z,0
2022-08-07T21:24:51.473Z,0
2022-08-07T21:29:57.443Z,0
2022-08-07T21:34:51.502Z,0
2022-08-07T21:39:58.209Z,0
2022-08-07T21:44:54.280Z,0
2022-08-07T21:50:15.125Z,0
2022-08-07T21:54:51.436Z,0
2022-08-07T21:59:19.782Z,0
2022-08-07T22:04:25.503Z,0
2022-08-07T22:09:15.262Z,0
2022-08-07T22:14:59.184Z,0
2022-08-07T22:19:16.213Z,0
2022-08-07T22:24:13.718Z,0
2022-08-07T22:29:16.885Z,0
2022-08-07T22:34:31.577Z,0
2022-08-07T22:39:24.806Z,0
2022-08-07T22:44:22.349Z,0
2022-08-07T22:49:19.825Z,0
2022-08-07T22:54:22.893Z,0
2022-08-07T22:58:55.564Z,0
2022-08-07T23:04:06.520Z,0
2022-08-07T23:10:42.910Z,0
2022-08-07T23:14:23.289Z,0
2022-08-07T23:18:51.305Z,0
2022-08-07T23:24:21.852Z,0
2022-08-07T23:29:02.310Z,0
2022-08-07T23:34:42.614Z,0
2022-08-07T23:38:57.428Z,0
2022-08-07T23:43:55.321Z,0
2022-08-07T23:48:50.078Z,0
2022-08-07T23:53:55.613Z,0
2022-08-07T23:58:50.119Z,0
